Time;durP1;ratioP1;P1;durP2;ratioP2;P2;SDS_P1;SDS_P2;PMS_P1;PMS_P2;Temp;Humidity;BMP_temperature;BMP_pressure;BME280_temperature;BME280_humidity;BME280_pressure;Samples;Min_cycle;Max_cycle;Signal;HPM_P1;HPM_P2
2023/11/23 00:02:15;;;;;;;2.73;2.53;;;;;;;;;;5050629;28;20212;-80
2023/11/23 00:04:42;;;;;;;2.77;2.10;;;;;;;;;;5050365;28;20211;-80
2023/11/23 00:07:09;;;;;;;4.60;3.37;;;;;;;;;;5050940;28;20209;-80
2023/11/23 00:09:36;;;;;;;4.53;3.30;;;;;;;;;;5050744;28;20205;-80
2023/11/23 00:12:02;;;;;;;5.60;4.17;;;;;;;;;;5050867;28;20602;-80
2023/11/23 00:14:32;;;;;;;5.97;4.90;;;;;;;;;;5050176;28;20203;-80
2023/11/23 00:16:59;;;;;;;3.97;2.27;;;;;;;;;;5049978;28;20289;-80
2023/11/23 00:19:27;;;;;;;2.43;2.23;;;;;;;;;;5050104;28;20202;-80
2023/11/23 00:21:54;;;;;;;3.10;2.33;;;;;;;;;;5050701;28;20198;-80
2023/11/23 00:24:21;;;;;;;5.63;4.50;;;;;;;;;;5049874;28;20226;-77
2023/11/23 00:26:48;;;;;;;5.03;3.90;;;;;;;;;;5050074;28;20216;-78
2023/11/23 00:29:15;;;;;;;3.27;2.97;;;;;;;;;;5050271;28;20213;-78
2023/11/23 00:31:41;;;;;;;8.00;4.40;;;;;;;;;;5050259;28;20205;-78
2023/11/23 00:34:08;;;;;;;2.40;2.20;;;;;;;;;;5049903;28;20197;-78
2023/11/23 00:36:37;;;;;;;5.17;3.10;;;;;;;;;;5050235;28;20249;-78
2023/11/23 00:39:04;;;;;;;2.77;2.57;;;;;;;;;;5049949;28;20215;-78
2023/11/23 00:41:31;;;;;;;4.07;3.27;;;;;;;;;;5050177;28;20213;-78
2023/11/23 00:43:58;;;;;;;5.93;4.03;;;;;;;;;;5036500;28;20207;-78
2023/11/23 00:46:25;;;;;;;6.60;5.83;;;;;;;;;;5050549;28;20209;-78
2023/11/23 00:48:53;;;;;;;6.40;5.80;;;;;;;;;;5052476;28;20229;-78
2023/11/23 00:51:20;;;;;;;7.37;6.67;;;;;;;;;;5052974;28;20214;-78
2023/11/23 00:53:48;;;;;;;8.17;6.57;;;;;;;;;;5040693;28;20256;-78
2023/11/23 00:56:16;;;;;;;6.40;5.80;;;;;;;;;;5053771;28;20707;-78
2023/11/23 00:58:44;;;;;;;5.90;5.37;;;;;;;;;;5053206;28;20677;-78
2023/11/23 01:01:14;;;;;;;6.50;5.90;;;;;;;;;;5053911;28;20201;-78
2023/11/23 01:03:41;;;;;;;6.20;5.70;;;;;;;;;;5053129;28;20209;-78
2023/11/23 01:06:08;;;;;;;7.30;6.60;;;;;;;;;;5053611;28;20206;-82
2023/11/23 01:08:35;;;;;;;7.47;6.87;;;;;;;;;;5027270;28;20194;-78
2023/11/23 01:11:03;;;;;;;8.13;7.13;;;;;;;;;;5054016;28;20588;-78
2023/11/23 01:13:31;;;;;;;8.13;7.40;;;;;;;;;;5053785;28;20205;-78
2023/11/23 01:15:58;;;;;;;7.63;7.03;;;;;;;;;;5052821;28;20229;-78
2023/11/23 01:18:25;;;;;;;7.80;7.17;;;;;;;;;;5053412;28;20201;-78
2023/11/23 01:20:52;;;;;;;8.10;7.27;;;;;;;;;;5053053;28;20669;-78
2023/11/23 01:23:18;;;;;;;7.77;7.07;;;;;;;;;;5053392;28;20206;-78
2023/11/23 01:25:46;;;;;;;6.70;6.20;;;;;;;;;;5052808;28;20238;-78
2023/11/23 01:28:15;;;;;;;9.07;8.27;;;;;;;;;;5053006;28;20206;-78
2023/11/23 01:30:42;;;;;;;9.07;8.27;;;;;;;;;;5039995;28;20237;-78
2023/11/23 01:33:09;;;;;;;7.97;7.27;;;;;;;;;;5053247;28;20220;-79
2023/11/23 01:35:35;;;;;;;9.27;8.37;;;;;;;;;;5052286;28;20221;-77
2023/11/23 01:38:02;;;;;;;8.97;8.07;;;;;;;;;;5044707;28;20689;-78
2023/11/23 01:40:30;;;;;;;8.80;8.00;;;;;;;;;;5048265;28;20244;-78
2023/11/23 01:43:02;;;;;;;8.37;7.67;;;;;;;;;;5052922;28;20212;-78
2023/11/23 01:45:30;;;;;;;8.27;7.57;;;;;;;;;;5052430;28;20202;-78
2023/11/23 01:47:57;;;;;;;6.57;6.07;;;;;;;;;;5052863;28;20206;-79
2023/11/23 01:50:24;;;;;;;7.00;6.27;;;;;;;;;;5052679;28;20198;-78
2023/11/23 01:52:51;;;;;;;6.20;5.70;;;;;;;;;;5053119;28;20213;-79
2023/11/23 01:55:18;;;;;;;6.70;6.10;;;;;;;;;;5051918;28;20221;-79
2023/11/23 01:57:46;;;;;;;6.03;5.47;;;;;;;;;;5042674;28;20211;-80
2023/11/23 02:00:13;;;;;;;5.63;4.73;;;;;;;;;;5036048;28;20202;-80
2023/11/23 02:02:43;;;;;;;4.40;4.00;;;;;;;;;;5052955;28;20221;-80
2023/11/23 02:05:11;;;;;;;4.73;4.33;;;;;;;;;;5039202;28;20289;-80
2023/11/23 02:07:38;;;;;;;4.50;4.10;;;;;;;;;;5040664;28;20681;-79
2023/11/23 02:10:08;;;;;;;5.57;4.97;;;;;;;;;;5051186;28;20206;-79
2023/11/23 02:12:35;;;;;;;4.60;4.13;;;;;;;;;;5053010;28;20211;-79
2023/11/23 02:15:03;;;;;;;6.47;5.87;;;;;;;;;;5051621;28;20205;-79
2023/11/23 02:17:31;;;;;;;8.20;7.50;;;;;;;;;;5052733;28;20260;-79
2023/11/23 02:19:59;;;;;;;8.83;8.00;;;;;;;;;;5026873;28;20229;-78
2023/11/23 02:22:26;;;;;;;7.27;6.57;;;;;;;;;;5052537;28;20209;-79
2023/11/23 02:24:55;;;;;;;7.90;7.20;;;;;;;;;;5044521;28;20214;-78
2023/11/23 02:27:21;;;;;;;7.40;6.80;;;;;;;;;;5046337;28;20201;-78
2023/11/23 02:29:48;;;;;;;6.50;5.90;;;;;;;;;;5044150;28;20720;-78
2023/11/23 02:32:15;;;;;;;6.40;5.80;;;;;;;;;;5046732;28;20217;-78
2023/11/23 02:34:42;;;;;;;7.67;6.87;;;;;;;;;;5051713;28;20201;-79
2023/11/23 02:37:08;;;;;;;6.67;6.07;;;;;;;;;;5038836;28;20245;-79
2023/11/23 02:39:35;;;;;;;7.13;6.47;;;;;;;;;;5051979;28;20692;-78
2023/11/23 02:42:03;;;;;;;6.67;6.07;;;;;;;;;;5038773;28;20237;-79
2023/11/23 02:44:30;;;;;;;6.23;5.53;;;;;;;;;;5051678;28;20696;-78
2023/11/23 02:46:57;;;;;;;6.03;5.43;;;;;;;;;;5038207;28;20656;-79
2023/11/23 02:49:24;;;;;;;6.73;6.13;;;;;;;;;;5052193;28;20213;-78
2023/11/23 02:51:51;;;;;;;6.43;5.93;;;;;;;;;;5051747;28;20210;-79
2023/11/23 02:54:17;;;;;;;7.73;7.03;;;;;;;;;;5042398;28;20210;-78
2023/11/23 02:56:44;;;;;;;10.20;9.20;;;;;;;;;;5047739;28;21597;-79
2023/11/23 02:59:12;;;;;;;14.07;10.53;;;;;;;;;;5051804;28;20198;-79
2023/11/23 03:01:39;;;;;;;7.77;5.90;;;;;;;;;;5051543;28;20198;-78
2023/11/23 03:04:07;;;;;;;7.13;6.33;;;;;;;;;;5051801;28;20288;-78
2023/11/23 03:06:34;;;;;;;19.50;6.63;;;;;;;;;;5051655;28;20197;-78
2023/11/23 03:09:00;;;;;;;5.50;5.00;;;;;;;;;;5051475;28;20200;-78
2023/11/23 03:11:27;;;;;;;7.07;6.47;;;;;;;;;;5050961;28;20202;-79
2023/11/23 03:13:57;;;;;;;5.67;5.10;;;;;;;;;;5051085;28;20292;-78
2023/11/23 03:16:25;;;;;;;4.97;4.50;;;;;;;;;;5050825;28;20755;-78
2023/11/23 03:18:52;;;;;;;4.10;3.80;;;;;;;;;;5050699;28;20567;-78
2023/11/23 03:21:19;;;;;;;5.00;4.50;;;;;;;;;;5051057;28;20198;-78
2023/11/23 03:23:46;;;;;;;5.33;4.17;;;;;;;;;;5051061;28;20210;-79
2023/11/23 03:26:13;;;;;;;4.90;4.40;;;;;;;;;;5050993;28;20294;-79
2023/11/23 03:28:42;;;;;;;4.33;3.93;;;;;;;;;;5050546;28;20210;-78
2023/11/23 03:31:09;;;;;;;4.73;4.23;;;;;;;;;;5051121;28;20198;-79
2023/11/23 03:33:38;;;;;;;4.57;4.17;;;;;;;;;;5050051;28;20210;-79
2023/11/23 03:36:05;;;;;;;4.23;3.93;;;;;;;;;;5037049;28;20241;-78
2023/11/23 03:38:33;;;;;;;4.47;4.13;;;;;;;;;;5050544;28;20398;-78
2023/11/23 03:41:00;;;;;;;6.57;4.17;;;;;;;;;;5050812;28;20693;-78
2023/11/23 03:43:27;;;;;;;4.87;4.00;;;;;;;;;;5050758;28;20209;-78
2023/11/23 03:45:54;;;;;;;4.63;4.23;;;;;;;;;;5030710;28;20692;-78
2023/11/23 03:48:21;;;;;;;4.20;3.80;;;;;;;;;;5043925;28;20649;-80
2023/11/23 03:50:49;;;;;;;4.40;4.00;;;;;;;;;;5050851;28;20209;-78
2023/11/23 03:53:16;;;;;;;4.50;4.10;;;;;;;;;;5050105;28;20237;-79
2023/11/23 03:55:43;;;;;;;5.30;4.80;;;;;;;;;;5050746;28;20641;-79
2023/11/23 03:58:10;;;;;;;4.60;4.20;;;;;;;;;;5050836;28;20201;-78
2023/11/23 04:00:37;;;;;;;4.97;4.57;;;;;;;;;;5050458;28;20205;-78
2023/11/23 04:03:05;;;;;;;7.40;5.30;;;;;;;;;;5050715;28;20212;-78
2023/11/23 04:05:32;;;;;;;6.97;5.87;;;;;;;;;;5045849;28;20267;-78
2023/11/23 04:08:00;;;;;;;16.90;9.40;;;;;;;;;;5045023;28;20502;-78
2023/11/23 04:10:27;;;;;;;14.00;9.80;;;;;;;;;;5044982;28;20608;-78
2023/11/23 04:12:53;;;;;;;15.10;13.70;;;;;;;;;;5047338;28;20210;-79
2023/11/23 04:15:21;;;;;;;9.53;8.73;;;;;;;;;;5037509;28;20209;-78
2023/11/23 04:17:48;;;;;;;9.80;8.80;;;;;;;;;;5050139;28;20228;-78
2023/11/23 04:20:15;;;;;;;12.10;8.70;;;;;;;;;;5049933;28;20592;-79
2023/11/23 04:22:42;;;;;;;14.57;12.60;;;;;;;;;;5051209;28;20202;-78
2023/11/23 04:25:11;;;;;;;13.10;10.43;;;;;;;;;;5048570;28;20241;-78
2023/11/23 04:27:37;;;;;;;6.57;5.97;;;;;;;;;;5047233;28;20700;-78
2023/11/23 04:30:06;;;;;;;7.40;6.37;;;;;;;;;;5047949;28;20656;-78
2023/11/23 04:32:33;;;;;;;5.37;4.87;;;;;;;;;;5046734;28;20293;-79
2023/11/23 04:35:00;;;;;;;6.43;5.83;;;;;;;;;;5054708;28;20596;-78
2023/11/23 04:37:27;;;;;;;19.30;12.87;;;;;;;;;;5040671;28;20715;-78
2023/11/23 04:39:54;;;;;;;19.20;17.30;;;;;;;;;;5053813;28;20591;-78
2023/11/23 04:42:22;;;;;;;34.40;30.80;;;;;;;;;;5049102;28;20672;-79
2023/11/23 04:44:49;;;;;;;44.80;34.97;;;;;;;;;;5051671;28;20206;-78
2023/11/23 04:47:16;;;;;;;22.30;18.83;;;;;;;;;;5055294;28;20248;-79
2023/11/23 04:49:43;;;;;;;19.60;16.90;;;;;;;;;;5040462;28;20210;-78
2023/11/23 04:52:10;;;;;;;21.57;18.07;;;;;;;;;;5044917;28;20206;-79
2023/11/23 04:54:36;;;;;;;10.93;9.80;;;;;;;;;;5044529;28;20701;-79
2023/11/23 04:57:11;;;;;;;10.43;9.43;;;;;;;;;;5044489;28;20232;-79
2023/11/23 04:59:39;;;;;;;8.27;7.47;;;;;;;;;;5036324;28;20587;-79
2023/11/23 05:02:06;;;;;;;4.70;4.30;;;;;;;;;;5037006;28;20210;-79
2023/11/23 05:04:33;;;;;;;7.23;6.53;;;;;;;;;;5034184;28;20217;-79
2023/11/23 05:07:00;;;;;;;8.53;7.83;;;;;;;;;;5050840;28;20198;-79
2023/11/23 05:09:27;;;;;;;9.87;9.03;;;;;;;;;;5053244;28;20208;-79
2023/11/23 05:11:54;;;;;;;8.30;7.13;;;;;;;;;;5037757;28;20206;-83
2023/11/23 05:14:21;;;;;;;9.97;9.07;;;;;;;;;;5041829;28;20257;-78
2023/11/23 05:16:51;;;;;;;9.93;9.03;;;;;;;;;;5052132;28;20233;-79
2023/11/23 05:19:19;;;;;;;12.77;11.47;;;;;;;;;;5053483;28;20305;-79
2023/11/23 05:21:46;;;;;;;16.33;14.93;;;;;;;;;;5040576;28;20238;-79
2023/11/23 05:24:15;;;;;;;10.50;9.67;;;;;;;;;;5053145;28;20245;-78
2023/11/23 05:26:42;;;;;;;5.27;4.97;;;;;;;;;;5048134;28;20242;-79
2023/11/23 05:29:09;;;;;;;5.77;5.27;;;;;;;;;;5053393;28;20743;-78
2023/11/23 05:31:35;;;;;;;4.50;4.20;;;;;;;;;;5053024;28;20212;-79
2023/11/23 05:34:05;;;;;;;5.40;5.00;;;;;;;;;;5050630;28;20689;-78
2023/11/23 05:36:32;;;;;;;5.00;4.57;;;;;;;;;;5033551;28;20242;-78
2023/11/23 05:38:58;;;;;;;4.73;4.33;;;;;;;;;;5035817;28;20215;-79
2023/11/23 05:41:25;;;;;;;5.17;4.67;;;;;;;;;;5051931;28;20228;-78
2023/11/23 05:43:52;;;;;;;4.80;4.40;;;;;;;;;;5052259;28;20202;-79
2023/11/23 05:46:19;;;;;;;4.97;4.57;;;;;;;;;;5053357;28;20210;-79
2023/11/23 05:48:46;;;;;;;4.37;3.57;;;;;;;;;;5049958;28;20211;-82
2023/11/23 05:51:14;;;;;;;3.33;3.13;;;;;;;;;;5042562;28;20210;-79
2023/11/23 05:53:41;;;;;;;3.67;3.37;;;;;;;;;;5049803;28;20206;-79
2023/11/23 05:56:09;;;;;;;3.83;3.50;;;;;;;;;;5043288;28;20722;-79
2023/11/23 05:58:36;;;;;;;3.30;3.10;;;;;;;;;;5052217;28;20206;-79
2023/11/23 06:01:03;;;;;;;2.53;2.33;;;;;;;;;;5042176;28;20210;-80
2023/11/23 06:03:31;;;;;;;3.53;2.97;;;;;;;;;;5045829;28;20213;-79
2023/11/23 06:05:58;;;;;;;2.93;2.73;;;;;;;;;;5043208;28;20208;-79
2023/11/23 06:08:27;;;;;;;3.73;3.40;;;;;;;;;;5052626;28;20206;-79
2023/11/23 06:10:54;;;;;;;3.47;3.17;;;;;;;;;;5041118;28;20211;-79
2023/11/23 06:13:21;;;;;;;5.20;4.60;;;;;;;;;;5045421;28;20690;-80
2023/11/23 06:15:48;;;;;;;13.47;11.07;;;;;;;;;;5032730;28;20198;-80
2023/11/23 06:18:16;;;;;;;12.13;10.80;;;;;;;;;;5045884;28;20705;-79
2023/11/23 06:20:43;;;;;;;11.93;10.73;;;;;;;;;;5032597;28;20217;-79
2023/11/23 06:23:10;;;;;;;8.97;7.00;;;;;;;;;;5051714;28;20202;-79
2023/11/23 06:25:39;;;;;;;5.10;4.60;;;;;;;;;;5039896;28;20694;-79
2023/11/23 06:28:08;;;;;;;11.07;8.90;;;;;;;;;;5038599;28;20728;-80
2023/11/23 06:30:35;;;;;;;12.47;11.27;;;;;;;;;;5052444;28;20198;-82
2023/11/23 06:33:02;;;;;;;9.00;8.10;;;;;;;;;;5045086;28;20210;-79
2023/11/23 06:35:30;;;;;;;6.87;6.23;;;;;;;;;;5046102;28;20206;-80
2023/11/23 06:37:57;;;;;;;7.93;7.23;;;;;;;;;;5051904;28;20240;-79
2023/11/23 06:40:24;;;;;;;6.60;6.00;;;;;;;;;;5038847;28;20202;-79
2023/11/23 06:42:52;;;;;;;4.80;4.40;;;;;;;;;;5052411;28;20202;-79
2023/11/23 06:45:19;;;;;;;6.33;5.80;;;;;;;;;;5037910;28;20199;-82
2023/11/23 06:47:46;;;;;;;38.00;34.07;;;;;;;;;;5052053;28;20604;-80
2023/11/23 06:50:14;;;;;;;12.63;11.60;;;;;;;;;;5050307;28;20209;-79
2023/11/23 06:52:41;;;;;;;7.30;6.77;;;;;;;;;;5040690;28;20201;-79
2023/11/23 06:55:09;;;;;;;4.70;4.40;;;;;;;;;;5051438;28;20209;-79
2023/11/23 06:57:39;;;;;;;5.70;5.20;;;;;;;;;;5042526;28;20859;-79
2023/11/23 07:00:16;;;;;;;3.30;3.03;;;;;;;;;;5044862;28;20210;-79
2023/11/23 07:02:43;;;;;;;5.77;5.27;;;;;;;;;;5043760;28;20293;-79
2023/11/23 07:05:11;;;;;;;6.00;5.50;;;;;;;;;;5050654;28;20202;-79
2023/11/23 07:07:38;;;;;;;5.97;5.47;;;;;;;;;;5051784;28;20226;-79
2023/11/23 07:10:08;;;;;;;7.10;6.50;;;;;;;;;;5038052;28;20200;-79
2023/11/23 07:12:35;;;;;;;4.67;4.30;;;;;;;;;;5051450;28;20680;-79
2023/11/23 07:15:02;;;;;;;4.77;4.37;;;;;;;;;;5051557;28;20216;-79
2023/11/23 07:17:30;;;;;;;5.77;5.27;;;;;;;;;;5051315;28;20233;-79
2023/11/23 07:19:57;;;;;;;5.77;5.27;;;;;;;;;;5051223;28;20228;-79
2023/11/23 07:22:24;;;;;;;7.10;6.40;;;;;;;;;;5051549;28;20201;-80
2023/11/23 07:24:52;;;;;;;5.13;4.73;;;;;;;;;;5038553;28;20271;-79
2023/11/23 07:27:19;;;;;;;4.67;4.30;;;;;;;;;;5051299;28;20337;-79
2023/11/23 07:29:46;;;;;;;5.07;4.67;;;;;;;;;;5051499;28;20210;-79
2023/11/23 07:32:14;;;;;;;4.43;4.07;;;;;;;;;;5050470;28;20237;-79
2023/11/23 07:34:42;;;;;;;4.97;4.50;;;;;;;;;;5050962;28;20684;-79
2023/11/23 07:37:10;;;;;;;7.37;6.77;;;;;;;;;;5036827;28;20242;-80
2023/11/23 07:39:37;;;;;;;4.53;4.20;;;;;;;;;;5039317;28;20594;-79
2023/11/23 07:42:04;;;;;;;6.40;5.90;;;;;;;;;;5037608;28;20210;-79
2023/11/23 07:44:33;;;;;;;4.40;4.00;;;;;;;;;;5042734;28;20330;-78
2023/11/23 07:46:59;;;;;;;3.93;3.63;;;;;;;;;;5033546;28;20214;-78
2023/11/23 07:49:26;;;;;;;4.17;3.87;;;;;;;;;;5050655;28;20209;-78
2023/11/23 07:51:55;;;;;;;4.63;2.97;;;;;;;;;;5051005;28;20233;-79
2023/11/23 07:54:22;;;;;;;3.97;3.67;;;;;;;;;;5051226;28;20229;-79
2023/11/23 07:56:51;;;;;;;4.50;4.17;;;;;;;;;;5047060;28;20203;-79
2023/11/23 07:59:18;;;;;;;5.67;5.17;;;;;;;;;;5040708;28;20741;-78
2023/11/23 08:01:45;;;;;;;3.73;3.43;;;;;;;;;;5050825;28;20209;-78
2023/11/23 08:04:12;;;;;;;4.67;4.27;;;;;;;;;;5050627;28;20213;-78
2023/11/23 08:06:41;;;;;;;4.77;4.37;;;;;;;;;;5033973;28;20205;-78
2023/11/23 08:09:16;;;;;;;3.57;3.20;;;;;;;;;;5031053;28;20637;-78
2023/11/23 08:11:43;;;;;;;5.33;4.93;;;;;;;;;;5049723;28;20586;-79
2023/11/23 08:14:12;;;;;;;5.93;5.43;;;;;;;;;;5050863;28;20205;-78
2023/11/23 08:16:39;;;;;;;5.87;5.37;;;;;;;;;;5051041;28;20205;-78
2023/11/23 08:19:06;;;;;;;5.47;4.93;;;;;;;;;;5037265;28;20317;-79
2023/11/23 08:21:33;;;;;;;8.07;6.80;;;;;;;;;;5050775;28;20205;-78
2023/11/23 08:24:00;;;;;;;4.93;4.53;;;;;;;;;;5049633;28;20201;-79
2023/11/23 08:26:31;;;;;;;6.30;5.80;;;;;;;;;;5030882;28;20282;-79
2023/11/23 08:28:58;;;;;;;4.80;4.40;;;;;;;;;;5043597;28;20590;-78
2023/11/23 08:31:28;;;;;;;4.53;4.17;;;;;;;;;;5039298;28;20283;-79
2023/11/23 08:33:55;;;;;;;4.90;4.50;;;;;;;;;;5050090;28;20208;-79
2023/11/23 08:36:22;;;;;;;5.97;5.27;;;;;;;;;;5050689;28;20229;-78
2023/11/23 08:38:50;;;;;;;7.93;7.20;;;;;;;;;;5048393;28;20261;-78
2023/11/23 08:41:18;;;;;;;9.17;8.47;;;;;;;;;;5039137;28;20202;-78
2023/11/23 08:43:47;;;;;;;6.67;6.13;;;;;;;;;;5050501;28;20206;-78
2023/11/23 08:46:14;;;;;;;9.47;8.57;;;;;;;;;;5050287;28;20205;-78
2023/11/23 08:48:42;;;;;;;9.13;8.23;;;;;;;;;;5049900;28;20205;-79
2023/11/23 08:51:08;;;;;;;3.97;3.63;;;;;;;;;;5040878;28;20206;-78
2023/11/23 08:53:35;;;;;;;3.40;3.10;;;;;;;;;;5043596;28;20202;-78
2023/11/23 08:56:02;;;;;;;4.60;4.20;;;;;;;;;;5040676;28;20198;-78
2023/11/23 08:58:29;;;;;;;3.77;3.23;;;;;;;;;;5046341;28;20231;-78
2023/11/23 09:00:58;;;;;;;4.40;4.00;;;;;;;;;;5040881;28;20198;-78
2023/11/23 09:03:26;;;;;;;3.87;3.57;;;;;;;;;;5045608;28;20697;-79
2023/11/23 09:05:54;;;;;;;4.43;4.13;;;;;;;;;;5041746;28;20206;-78
2023/11/23 09:08:21;;;;;;;3.70;3.40;;;;;;;;;;5049645;28;20681;-78
2023/11/23 09:10:48;;;;;;;4.63;4.23;;;;;;;;;;5053963;28;20206;-78
2023/11/23 09:13:15;;;;;;;5.43;4.93;;;;;;;;;;5053848;28;20208;-80
2023/11/23 09:15:42;;;;;;;4.40;4.00;;;;;;;;;;5053796;28;20197;-77
2023/11/23 09:18:10;;;;;;;4.30;4.00;;;;;;;;;;5052909;28;20245;-78
2023/11/23 09:20:37;;;;;;;4.20;3.90;;;;;;;;;;5053447;28;20205;-78
2023/11/23 09:23:04;;;;;;;4.50;4.10;;;;;;;;;;5053008;28;20205;-78
2023/11/23 09:25:33;;;;;;;5.63;5.13;;;;;;;;;;5053737;28;20573;-78
2023/11/23 09:28:00;;;;;;;4.73;4.40;;;;;;;;;;5053444;28;20289;-78
2023/11/23 09:30:27;;;;;;;4.97;4.57;;;;;;;;;;5040133;28;20681;-79
2023/11/23 09:32:55;;;;;;;3.80;3.60;;;;;;;;;;5039587;28;20208;-83
2023/11/23 09:35:23;;;;;;;4.17;3.87;;;;;;;;;;5040171;28;20209;-78
2023/11/23 09:37:53;;;;;;;3.50;3.20;;;;;;;;;;5028331;28;20237;-78
2023/11/23 09:40:20;;;;;;;4.30;3.90;;;;;;;;;;5053080;28;20270;-78
2023/11/23 09:42:48;;;;;;;4.77;4.27;;;;;;;;;;5053071;28;20210;-78
2023/11/23 09:45:16;;;;;;;4.07;3.70;;;;;;;;;;5053147;28;20197;-78
2023/11/23 09:47:44;;;;;;;8.00;7.33;;;;;;;;;;5052924;28;20198;-78
2023/11/23 09:50:11;;;;;;;8.10;7.50;;;;;;;;;;5053290;28;20209;-78
2023/11/23 09:52:41;;;;;;;12.00;10.67;;;;;;;;;;5044399;28;20213;-78
2023/11/23 09:55:09;;;;;;;6.17;5.77;;;;;;;;;;5045864;28;21448;-79
2023/11/23 09:57:36;;;;;;;4.70;4.20;;;;;;;;;;5042999;28;20220;-78
2023/11/23 10:00:08;;;;;;;3.50;3.30;;;;;;;;;;5052997;28;20202;-80
2023/11/23 10:02:36;;;;;;;3.30;3.00;;;;;;;;;;5053237;28;20593;-78
2023/11/23 10:05:03;;;;;;;3.80;3.50;;;;;;;;;;5048658;28;20269;-78
2023/11/23 10:07:32;;;;;;;2.97;2.77;;;;;;;;;;5044165;28;20210;-78
2023/11/23 10:10:05;;;;;;;8.60;7.90;;;;;;;;;;5052371;28;20202;-78
2023/11/23 10:12:32;;;;;;;4.70;4.27;;;;;;;;;;5040273;28;20257;-78
2023/11/23 10:14:58;;;;;;;12.13;9.77;;;;;;;;;;5046229;28;20643;-79
2023/11/23 10:17:25;;;;;;;8.30;4.20;;;;;;;;;;5045177;28;20206;-79
2023/11/23 10:19:52;;;;;;;12.43;8.93;;;;;;;;;;5051941;28;20198;-78
2023/11/23 10:22:19;;;;;;;5.33;4.77;;;;;;;;;;5051351;28;20672;-78
2023/11/23 10:24:49;;;;;;;6.50;4.73;;;;;;;;;;5052009;28;20680;-78
2023/11/23 10:27:18;;;;;;;9.70;4.43;;;;;;;;;;5052042;28;20242;-79
2023/11/23 10:29:46;;;;;;;10.13;3.63;;;;;;;;;;5052621;28;20205;-79
2023/11/23 10:32:15;;;;;;;4.37;3.50;;;;;;;;;;5039138;28;20206;-78
2023/11/23 10:34:42;;;;;;;3.23;3.03;;;;;;;;;;5044331;28;20704;-78
2023/11/23 10:37:11;;;;;;;5.80;5.30;;;;;;;;;;5045351;28;20226;-78
2023/11/23 10:39:38;;;;;;;3.50;3.20;;;;;;;;;;5032156;28;20226;-78
2023/11/23 10:42:06;;;;;;;2.73;2.53;;;;;;;;;;5047053;28;20206;-78
2023/11/23 10:44:35;;;;;;;3.90;3.50;;;;;;;;;;5052091;28;20638;-78
2023/11/23 10:47:03;;;;;;;4.33;3.97;;;;;;;;;;5051532;28;20255;-78
2023/11/23 10:49:33;;;;;;;2.90;2.70;;;;;;;;;;5042339;28;20630;-78
2023/11/23 10:52:00;;;;;;;4.10;3.80;;;;;;;;;;5048625;28;20225;-79
2023/11/23 10:54:27;;;;;;;3.10;2.90;;;;;;;;;;5052020;28;20236;-79
2023/11/23 10:56:55;;;;;;;2.70;2.50;;;;;;;;;;5047978;28;20685;-78
2023/11/23 10:59:23;;;;;;;3.97;3.67;;;;;;;;;;5042695;28;20269;-78
2023/11/23 11:01:55;;;;;;;2.50;2.30;;;;;;;;;;5051438;28;20200;-78
2023/11/23 11:04:22;;;;;;;2.93;2.73;;;;;;;;;;5051729;28;20308;-78
2023/11/23 11:06:54;;;;;;;3.70;3.40;;;;;;;;;;5051476;28;20212;-79
2023/11/23 11:09:25;;;;;;;3.87;3.57;;;;;;;;;;5051020;28;20230;-79
2023/11/23 11:11:54;;;;;;;3.27;2.97;;;;;;;;;;5051534;28;20201;-78
2023/11/23 11:14:31;;;;;;;3.47;3.17;;;;;;;;;;5050644;28;20210;-78
2023/11/23 11:17:03;;;;;;;14.40;12.33;;;;;;;;;;5051583;28;20241;-82
2023/11/23 11:19:30;;;;;;;10.97;9.97;;;;;;;;;;5047945;28;20234;-78
2023/11/23 11:22:00;;;;;;;8.80;8.00;;;;;;;;;;5042085;28;20214;-78
2023/11/23 11:24:26;;;;;;;6.20;5.70;;;;;;;;;;5038087;28;20198;-78
2023/11/23 11:27:01;;;;;;;7.93;6.97;;;;;;;;;;5051009;28;20209;-78
2023/11/23 11:29:30;;;;;;;2.93;2.73;;;;;;;;;;5045730;28;20259;-78
2023/11/23 11:31:57;;;;;;;3.90;3.60;;;;;;;;;;5043711;28;20206;-78
2023/11/23 11:34:28;;;;;;;6.47;5.87;;;;;;;;;;5050519;28;20202;-78
2023/11/23 11:36:59;;;;;;;5.20;4.80;;;;;;;;;;5051278;28;20232;-78
2023/11/23 11:39:30;;;;;;;4.47;4.13;;;;;;;;;;5050572;28;20225;-79
2023/11/23 11:41:59;;;;;;;4.33;4.03;;;;;;;;;;5051010;28;20289;-78
2023/11/23 11:44:26;;;;;;;4.47;4.13;;;;;;;;;;5042745;28;20234;-78
2023/11/23 11:46:53;;;;;;;4.10;3.80;;;;;;;;;;5045271;28;20214;-78
2023/11/23 11:49:20;;;;;;;4.60;4.20;;;;;;;;;;5050588;28;20246;-78
2023/11/23 11:51:48;;;;;;;4.40;4.07;;;;;;;;;;5051190;28;20233;-78
2023/11/23 11:54:15;;;;;;;4.47;4.07;;;;;;;;;;5050530;28;20210;-78
2023/11/23 11:56:42;;;;;;;3.73;3.43;;;;;;;;;;5037367;28;20210;-78
2023/11/23 11:59:12;;;;;;;3.93;3.63;;;;;;;;;;5050311;28;20670;-78
2023/11/23 12:01:39;;;;;;;3.70;3.40;;;;;;;;;;5050581;28;20206;-78
2023/11/23 12:04:07;;;;;;;4.33;3.93;;;;;;;;;;5050693;28;20240;-78
2023/11/23 12:06:35;;;;;;;4.37;4.07;;;;;;;;;;5050341;28;20259;-78
2023/11/23 12:09:04;;;;;;;5.00;4.60;;;;;;;;;;5050776;28;20217;-78
2023/11/23 12:11:31;;;;;;;4.17;3.87;;;;;;;;;;5033153;28;20241;-78
2023/11/23 12:13:58;;;;;;;5.37;4.87;;;;;;;;;;5030805;28;20209;-78
2023/11/23 12:16:33;;;;;;;4.00;3.67;;;;;;;;;;5035035;28;20206;-78
2023/11/23 12:19:00;;;;;;;5.77;5.37;;;;;;;;;;5050706;28;20635;-79
2023/11/23 12:21:28;;;;;;;5.97;4.43;;;;;;;;;;5037577;28;20212;-78
2023/11/23 12:23:54;;;;;;;4.83;4.43;;;;;;;;;;5050203;28;20212;-78
2023/11/23 12:26:23;;;;;;;6.03;4.80;;;;;;;;;;5050609;28;20256;-78
2023/11/23 12:28:50;;;;;;;4.77;4.37;;;;;;;;;;5049936;28;20317;-78
2023/11/23 12:31:17;;;;;;;4.53;4.20;;;;;;;;;;5024174;28;20201;-78
2023/11/23 12:33:44;;;;;;;4.50;4.10;;;;;;;;;;5050160;28;20213;-77
2023/11/23 12:36:12;;;;;;;5.50;4.97;;;;;;;;;;5050004;28;20713;-78
2023/11/23 12:38:41;;;;;;;6.77;6.10;;;;;;;;;;5050181;28;20601;-78
2023/11/23 12:41:08;;;;;;;5.33;4.93;;;;;;;;;;5050720;28;20206;-78
2023/11/23 12:43:36;;;;;;;4.30;4.00;;;;;;;;;;5037340;28;20207;-78
2023/11/23 12:46:04;;;;;;;4.57;4.17;;;;;;;;;;5054049;28;20684;-79
2023/11/23 12:48:32;;;;;;;5.03;3.53;;;;;;;;;;5052370;28;20231;-78
2023/11/23 12:50:59;;;;;;;3.60;3.30;;;;;;;;;;5034656;28;20240;-78
2023/11/23 12:53:27;;;;;;;3.83;3.53;;;;;;;;;;5049243;28;20237;-78
2023/11/23 12:55:55;;;;;;;4.40;4.00;;;;;;;;;;5054361;28;20640;-78
2023/11/23 12:58:22;;;;;;;4.10;3.80;;;;;;;;;;5051033;28;20226;-78
2023/11/23 13:00:52;;;;;;;4.10;3.80;;;;;;;;;;5034049;28;20684;-78
2023/11/23 13:03:21;;;;;;;3.70;3.40;;;;;;;;;;5051058;28;20693;-78
2023/11/23 13:05:49;;;;;;;4.03;3.47;;;;;;;;;;5053999;28;20240;-78
2023/11/23 13:08:16;;;;;;;4.63;4.23;;;;;;;;;;5052981;28;20225;-78
2023/11/23 13:10:43;;;;;;;4.97;4.33;;;;;;;;;;5053716;28;20201;-78
2023/11/23 13:13:10;;;;;;;5.40;4.90;;;;;;;;;;5040026;28;20229;-78
2023/11/23 13:15:37;;;;;;;5.70;5.20;;;;;;;;;;5042231;28;20287;-78
2023/11/23 13:18:08;;;;;;;5.57;5.07;;;;;;;;;;5051618;28;20659;-78
2023/11/23 13:20:35;;;;;;;12.20;5.03;;;;;;;;;;5053633;28;20610;-78
2023/11/23 13:23:06;;;;;;;6.20;5.60;;;;;;;;;;5053812;28;20202;-78
2023/11/23 13:25:33;;;;;;;6.03;5.43;;;;;;;;;;5053883;28;20194;-78
2023/11/23 13:28:00;;;;;;;5.33;4.50;;;;;;;;;;5054533;28;20201;-78
2023/11/23 13:30:27;;;;;;;8.13;4.83;;;;;;;;;;5052767;28;20259;-79
2023/11/23 13:32:56;;;;;;;5.47;4.97;;;;;;;;;;5040614;28;20201;-79
2023/11/23 13:35:26;;;;;;;4.60;4.20;;;;;;;;;;5053222;28;20228;-78
2023/11/23 13:37:53;;;;;;;4.50;4.10;;;;;;;;;;5052828;28;20604;-78
2023/11/23 13:40:20;;;;;;;4.50;4.10;;;;;;;;;;5052553;28;20641;-78
2023/11/23 13:42:47;;;;;;;4.37;3.97;;;;;;;;;;5053683;28;20206;-78
2023/11/23 13:45:15;;;;;;;4.30;3.90;;;;;;;;;;5052964;28;20210;-78
2023/11/23 13:47:42;;;;;;;5.13;4.27;;;;;;;;;;5052920;28;20255;-78
2023/11/23 13:50:13;;;;;;;4.70;4.30;;;;;;;;;;5039690;28;20621;-78
2023/11/23 13:52:41;;;;;;;7.77;6.40;;;;;;;;;;5053334;28;20202;-78
2023/11/23 13:55:09;;;;;;;4.93;4.43;;;;;;;;;;5052403;28;20227;-78
2023/11/23 13:57:36;;;;;;;3.90;3.60;;;;;;;;;;5052562;28;20730;-78
2023/11/23 14:00:12;;;;;;;4.97;4.33;;;;;;;;;;5052377;28;20232;-78
2023/11/23 14:02:41;;;;;;;4.63;4.23;;;;;;;;;;5052761;28;20744;-78
2023/11/23 14:05:09;;;;;;;6.70;6.10;;;;;;;;;;5052174;28;20202;-78
2023/11/23 14:07:36;;;;;;;5.60;5.07;;;;;;;;;;5053076;28;20206;-83
2023/11/23 14:10:08;;;;;;;6.40;5.73;;;;;;;;;;5052443;28;20672;-78
2023/11/23 14:12:36;;;;;;;5.87;5.23;;;;;;;;;;5052792;28;20650;-78
2023/11/23 14:15:03;;;;;;;6.30;5.07;;;;;;;;;;5032862;28;20677;-78
2023/11/23 14:17:30;;;;;;;5.93;4.90;;;;;;;;;;5045657;28;20673;-78
2023/11/23 14:20:00;;;;;;;4.93;4.40;;;;;;;;;;5051804;28;20233;-78
2023/11/23 14:22:27;;;;;;;5.27;4.77;;;;;;;;;;5051592;28;20677;-80
2023/11/23 14:24:54;;;;;;;5.17;4.47;;;;;;;;;;5052631;28;20209;-78
2023/11/23 14:27:22;;;;;;;5.53;4.80;;;;;;;;;;5038868;28;20234;-78
2023/11/23 14:29:49;;;;;;;5.27;4.53;;;;;;;;;;5052174;28;20201;-78
2023/11/23 14:32:17;;;;;;;6.13;5.00;;;;;;;;;;5052184;28;20198;-78
2023/11/23 14:34:46;;;;;;;5.43;4.47;;;;;;;;;;5044113;28;20248;-78
2023/11/23 14:37:13;;;;;;;4.00;3.70;;;;;;;;;;5047154;28;20287;-78
2023/11/23 14:39:44;;;;;;;4.20;3.80;;;;;;;;;;5052260;28;20312;-79
2023/11/23 14:42:11;;;;;;;4.90;4.30;;;;;;;;;;5051815;28;20206;-78
2023/11/23 14:44:40;;;;;;;4.60;4.20;;;;;;;;;;5052219;28;20568;-79